Terminal Aerodrome Forecast
Issued by NWS

Home | Current Version | Previous Version | Text Only | Print | Product List | Glossary Off
Versions: 1 2 3 4 5 6 7 8 9 10 11 12 13 14 15 16 17 18 19

000
FTUS43 KGRB 242002 AAA
TAFCWA
TAF AMD
KCWA 242002Z 2420/2518 03007KT P6SM OVC012
      TEMPO 2420/2423 BKN008
     FM242300 05006KT P6SM BKN013
     FM250500 04005KT 6SM BR BKN012
      TEMPO 2507/2511 2SM BR
     FM251400 04005KT P6SM SCT024=

USA.gov is the U.S. government's official web portal to all federal, state and local government web resources and services.